sensor_id;sensor_type;location;lat;lon;timestamp;temperature;humidity
37782;DHT22;23621;50.878;4.584;2024-03-08T00:00:49;13.40;56.70
37782;DHT22;23621;50.878;4.584;2024-03-08T00:02:51;13.40;56.80
37782;DHT22;23621;50.878;4.584;2024-03-08T00:04:52;13.40;56.80
37782;DHT22;23621;50.878;4.584;2024-03-08T00:06:53;13.40;56.70
37782;DHT22;23621;50.878;4.584;2024-03-08T00:08:53;13.30;56.50
37782;DHT22;23621;50.878;4.584;2024-03-08T00:10:54;13.30;56.40
37782;DHT22;23621;50.878;4.584;2024-03-08T00:12:55;13.30;56.40
37782;DHT22;23621;50.878;4.584;2024-03-08T00:14:56;13.30;56.40
37782;DHT22;23621;50.878;4.584;2024-03-08T00:16:56;13.20;56.40
37782;DHT22;23621;50.878;4.584;2024-03-08T00:18:57;13.20;56.30
37782;DHT22;23621;50.878;4.584;2024-03-08T00:20:58;13.20;56.20
37782;DHT22;23621;50.878;4.584;2024-03-08T00:22:59;13.20;56.30
37782;DHT22;23621;50.878;4.584;2024-03-08T00:24:59;13.20;56.40
37782;DHT22;23621;50.878;4.584;2024-03-08T00:27:00;13.10;56.30
37782;DHT22;23621;50.878;4.584;2024-03-08T00:29:02;13.10;56.30
37782;DHT22;23621;50.878;4.584;2024-03-08T00:31:03;13.10;56.20
37782;DHT22;23621;50.878;4.584;2024-03-08T00:33:04;13.10;56.20
37782;DHT22;23621;50.878;4.584;2024-03-08T00:35:05;13.10;56.20
37782;DHT22;23621;50.878;4.584;2024-03-08T00:37:09;13.10;56.30
37782;DHT22;23621;50.878;4.584;2024-03-08T00:39:09;13.00;56.10
37782;DHT22;23621;50.878;4.584;2024-03-08T00:41:10;13.00;56.10
37782;DHT22;23621;50.878;4.584;2024-03-08T00:43:11;12.90;56.20
37782;DHT22;23621;50.878;4.584;2024-03-08T00:45:11;12.90;56.30
37782;DHT22;23621;50.878;4.584;2024-03-08T00:47:12;12.90;56.30
37782;DHT22;23621;50.878;4.584;2024-03-08T00:49:13;12.80;56.30
37782;DHT22;23621;50.878;4.584;2024-03-08T00:51:14;12.80;56.40
37782;DHT22;23621;50.878;4.584;2024-03-08T00:53:16;12.80;56.50
37782;DHT22;23621;50.878;4.584;2024-03-08T00:55:17;12.70;57.00
37782;DHT22;23621;50.878;4.584;2024-03-08T00:57:18;12.70;56.60
37782;DHT22;23621;50.878;4.584;2024-03-08T00:59:19;12.70;56.70
37782;DHT22;23621;50.878;4.584;2024-03-08T01:01:20;12.70;56.70
37782;DHT22;23621;50.878;4.584;2024-03-08T01:03:21;12.60;56.70
37782;DHT22;23621;50.878;4.584;2024-03-08T01:05:22;12.60;56.70
37782;DHT22;23621;50.878;4.584;2024-03-08T01:07:24;12.60;56.70
37782;DHT22;23621;50.878;4.584;2024-03-08T01:09:26;12.50;56.70
37782;DHT22;23621;50.878;4.584;2024-03-08T01:11:27;12.50;56.80
37782;DHT22;23621;50.878;4.584;2024-03-08T01:13:28;12.60;56.90
37782;DHT22;23621;50.878;4.584;2024-03-08T01:15:29;12.60;56.80
37782;DHT22;23621;50.878;4.584;2024-03-08T01:17:30;12.50;56.80
37782;DHT22;23621;50.878;4.584;2024-03-08T01:19:31;12.60;56.70
37782;DHT22;23621;50.878;4.584;2024-03-08T01:21:33;12.60;56.70
37782;DHT22;23621;50.878;4.584;2024-03-08T01:23:34;12.50;56.60
37782;DHT22;23621;50.878;4.584;2024-03-08T01:25:35;12.50;56.50
37782;DHT22;23621;50.878;4.584;2024-03-08T01:27:36;12.50;56.60
37782;DHT22;23621;50.878;4.584;2024-03-08T01:29:37;12.50;56.60
37782;DHT22;23621;50.878;4.584;2024-03-08T01:31:38;12.50;56.50
37782;DHT22;23621;50.878;4.584;2024-03-08T01:33:38;12.50;56.50
37782;DHT22;23621;50.878;4.584;2024-03-08T01:35:39;12.50;56.60
37782;DHT22;23621;50.878;4.584;2024-03-08T01:37:41;12.50;56.50
37782;DHT22;23621;50.878;4.584;2024-03-08T01:39:42;12.40;56.30
37782;DHT22;23621;50.878;4.584;2024-03-08T01:41:43;12.40;56.40
37782;DHT22;23621;50.878;4.584;2024-03-08T01:43:44;12.40;56.40
37782;DHT22;23621;50.878;4.584;2024-03-08T01:45:45;12.40;56.40
37782;DHT22;23621;50.878;4.584;2024-03-08T01:47:46;12.40;56.40
37782;DHT22;23621;50.878;4.584;2024-03-08T01:49:49;12.40;56.40
37782;DHT22;23621;50.878;4.584;2024-03-08T01:51:51;12.40;56.30
37782;DHT22;23621;50.878;4.584;2024-03-08T01:53:52;12.30;56.20
37782;DHT22;23621;50.878;4.584;2024-03-08T01:55:56;12.30;56.20
37782;DHT22;23621;50.878;4.584;2024-03-08T01:57:59;12.30;56.30
37782;DHT22;23621;50.878;4.584;2024-03-08T02:00:01;12.30;56.20
37782;DHT22;23621;50.878;4.584;2024-03-08T02:02:06;12.20;56.20
37782;DHT22;23621;50.878;4.584;2024-03-08T02:04:09;12.20;56.30
37782;DHT22;23621;50.878;4.584;2024-03-08T02:06:13;12.10;56.10
37782;DHT22;23621;50.878;4.584;2024-03-08T02:08:15;12.10;56.20
37782;DHT22;23621;50.878;4.584;2024-03-08T02:10:16;12.10;57.00
37782;DHT22;23621;50.878;4.584;2024-03-08T02:12:17;12.10;56.30
37782;DHT22;23621;50.878;4.584;2024-03-08T02:14:21;12.00;56.20
37782;DHT22;23621;50.878;4.584;2024-03-08T02:16:22;12.00;56.10
37782;DHT22;23621;50.878;4.584;2024-03-08T02:18:23;12.00;56.20
37782;DHT22;23621;50.878;4.584;2024-03-08T02:20:24;11.90;56.20
37782;DHT22;23621;50.878;4.584;2024-03-08T02:22:25;12.00;56.30
37782;DHT22;23621;50.878;4.584;2024-03-08T02:24:26;11.90;56.20
37782;DHT22;23621;50.878;4.584;2024-03-08T02:26:27;12.00;56.20
37782;DHT22;23621;50.878;4.584;2024-03-08T02:28:27;12.00;56.20
37782;DHT22;23621;50.878;4.584;2024-03-08T02:30:31;11.90;56.10
37782;DHT22;23621;50.878;4.584;2024-03-08T02:32:31;11.90;56.10
37782;DHT22;23621;50.878;4.584;2024-03-08T02:34:33;11.90;56.10
37782;DHT22;23621;50.878;4.584;2024-03-08T02:36:33;11.90;56.20
37782;DHT22;23621;50.878;4.584;2024-03-08T02:38:35;11.80;56.00
37782;DHT22;23621;50.878;4.584;2024-03-08T02:40:36;11.80;56.00
37782;DHT22;23621;50.878;4.584;2024-03-08T02:42:36;11.80;56.20
37782;DHT22;23621;50.878;4.584;2024-03-08T02:44:37;11.80;56.10
37782;DHT22;23621;50.878;4.584;2024-03-08T02:46:38;11.70;56.10
37782;DHT22;23621;50.878;4.584;2024-03-08T02:48:38;11.70;56.10
37782;DHT22;23621;50.878;4.584;2024-03-08T02:50:40;11.70;56.30
37782;DHT22;23621;50.878;4.584;2024-03-08T02:52:43;11.70;56.30
37782;DHT22;23621;50.878;4.584;2024-03-08T02:54:43;11.60;56.20
37782;DHT22;23621;50.878;4.584;2024-03-08T02:56:46;11.70;56.40
37782;DHT22;23621;50.878;4.584;2024-03-08T02:58:47;11.70;56.30
37782;DHT22;23621;50.878;4.584;2024-03-08T03:00:49;11.60;56.20
37782;DHT22;23621;50.878;4.584;2024-03-08T03:02:50;11.60;56.30
37782;DHT22;23621;50.878;4.584;2024-03-08T03:04:54;11.60;56.30
37782;DHT22;23621;50.878;4.584;2024-03-08T03:06:56;11.60;56.30
37782;DHT22;23621;50.878;4.584;2024-03-08T03:08:57;11.60;56.30
37782;DHT22;23621;50.878;4.584;2024-03-08T03:11:00;11.60;56.30
37782;DHT22;23621;50.878;4.584;2024-03-08T03:13:01;11.60;56.30
37782;DHT22;23621;50.878;4.584;2024-03-08T03:15:02;11.60;56.30
37782;DHT22;23621;50.878;4.584;2024-03-08T03:17:03;11.60;56.20
37782;DHT22;23621;50.878;4.584;2024-03-08T03:19:05;11.50;56.20
37782;DHT22;23621;50.878;4.584;2024-03-08T03:21:05;11.50;56.20
37782;DHT22;23621;50.878;4.584;2024-03-08T03:23:08;11.50;56.30
37782;DHT22;23621;50.878;4.584;2024-03-08T03:25:09;11.50;56.30
37782;DHT22;23621;50.878;4.584;2024-03-08T03:27:10;11.50;56.40
37782;DHT22;23621;50.878;4.584;2024-03-08T03:29:15;11.50;56.30
37782;DHT22;23621;50.878;4.584;2024-03-08T03:31:17;11.50;56.30
37782;DHT22;23621;50.878;4.584;2024-03-08T03:33:19;11.50;56.30
37782;DHT22;23621;50.878;4.584;2024-03-08T03:35:20;11.50;56.30
37782;DHT22;23621;50.878;4.584;2024-03-08T03:37:21;11.50;56.20
37782;DHT22;23621;50.878;4.584;2024-03-08T03:39:22;11.50;56.20
37782;DHT22;23621;50.878;4.584;2024-03-08T03:41:23;11.50;56.20
37782;DHT22;23621;50.878;4.584;2024-03-08T03:43:24;11.50;56.20
37782;DHT22;23621;50.878;4.584;2024-03-08T03:45:25;11.50;56.20
37782;DHT22;23621;50.878;4.584;2024-03-08T03:47:25;11.50;56.10
37782;DHT22;23621;50.878;4.584;2024-03-08T03:49:27;11.50;56.20
37782;DHT22;23621;50.878;4.584;2024-03-08T03:51:29;11.40;56.10
37782;DHT22;23621;50.878;4.584;2024-03-08T03:53:30;11.40;56.10
37782;DHT22;23621;50.878;4.584;2024-03-08T03:55:31;11.40;56.10
37782;DHT22;23621;50.878;4.584;2024-03-08T03:57:32;11.40;56.30
37782;DHT22;23621;50.878;4.584;2024-03-08T03:59:32;11.30;56.20
37782;DHT22;23621;50.878;4.584;2024-03-08T04:01:33;11.30;56.30
37782;DHT22;23621;50.878;4.584;2024-03-08T04:03:34;11.30;56.30
37782;DHT22;23621;50.878;4.584;2024-03-08T04:05:35;11.30;56.30
37782;DHT22;23621;50.878;4.584;2024-03-08T04:07:37;11.30;56.20
37782;DHT22;23621;50.878;4.584;2024-03-08T04:09:38;11.30;56.40
37782;DHT22;23621;50.878;4.584;2024-03-08T04:11:39;11.30;56.30
37782;DHT22;23621;50.878;4.584;2024-03-08T04:13:40;11.40;56.40
37782;DHT22;23621;50.878;4.584;2024-03-08T04:15:41;11.30;56.20
37782;DHT22;23621;50.878;4.584;2024-03-08T04:17:44;11.30;56.20
37782;DHT22;23621;50.878;4.584;2024-03-08T04:19:46;11.30;56.20
37782;DHT22;23621;50.878;4.584;2024-03-08T04:21:48;11.30;56.20
37782;DHT22;23621;50.878;4.584;2024-03-08T04:23:49;11.30;56.20
37782;DHT22;23621;50.878;4.584;2024-03-08T04:25:50;11.30;56.20
37782;DHT22;23621;50.878;4.584;2024-03-08T04:27:51;11.30;56.30
37782;DHT22;23621;50.878;4.584;2024-03-08T04:29:52;11.20;56.20
37782;DHT22;23621;50.878;4.584;2024-03-08T04:31:53;11.20;56.20
37782;DHT22;23621;50.878;4.584;2024-03-08T04:33:54;11.20;56.40
37782;DHT22;23621;50.878;4.584;2024-03-08T04:35:55;11.20;56.40
37782;DHT22;23621;50.878;4.584;2024-03-08T04:37:56;11.10;56.40
37782;DHT22;23621;50.878;4.584;2024-03-08T04:39:58;11.10;56.40
37782;DHT22;23621;50.878;4.584;2024-03-08T04:42:02;11.20;56.50
37782;DHT22;23621;50.878;4.584;2024-03-08T04:44:07;11.20;56.40
37782;DHT22;23621;50.878;4.584;2024-03-08T04:46:08;11.10;56.30
37782;DHT22;23621;50.878;4.584;2024-03-08T04:48:09;11.10;56.40
37782;DHT22;23621;50.878;4.584;2024-03-08T04:50:10;11.10;56.40
37782;DHT22;23621;50.878;4.584;2024-03-08T04:52:11;11.10;56.50
37782;DHT22;23621;50.878;4.584;2024-03-08T04:54:12;11.10;56.40
37782;DHT22;23621;50.878;4.584;2024-03-08T04:56:13;11.10;56.40
37782;DHT22;23621;50.878;4.584;2024-03-08T04:58:13;11.00;56.30
37782;DHT22;23621;50.878;4.584;2024-03-08T05:00:15;11.10;56.40
37782;DHT22;23621;50.878;4.584;2024-03-08T05:02:16;11.00;57.00
37782;DHT22;23621;50.878;4.584;2024-03-08T05:04:18;11.10;56.50
37782;DHT22;23621;50.878;4.584;2024-03-08T05:06:19;11.10;56.40
37782;DHT22;23621;50.878;4.584;2024-03-08T05:08:21;11.00;56.40
37782;DHT22;23621;50.878;4.584;2024-03-08T05:10:22;11.00;56.40
37782;DHT22;23621;50.878;4.584;2024-03-08T05:12:22;11.10;56.50
37782;DHT22;23621;50.878;4.584;2024-03-08T05:14:23;11.00;56.50
37782;DHT22;23621;50.878;4.584;2024-03-08T05:16:25;11.00;56.50
37782;DHT22;23621;50.878;4.584;2024-03-08T05:18:26;11.10;56.40
37782;DHT22;23621;50.878;4.584;2024-03-08T05:20:29;11.10;56.40
37782;DHT22;23621;50.878;4.584;2024-03-08T05:22:29;11.10;56.40
37782;DHT22;23621;50.878;4.584;2024-03-08T05:24:30;11.00;56.40
37782;DHT22;23621;50.878;4.584;2024-03-08T05:26:31;11.00;56.40
37782;DHT22;23621;50.878;4.584;2024-03-08T05:28:33;11.00;56.40
37782;DHT22;23621;50.878;4.584;2024-03-08T05:30:34;11.00;56.40
37782;DHT22;23621;50.878;4.584;2024-03-08T05:32:36;11.00;56.40
37782;DHT22;23621;50.878;4.584;2024-03-08T05:34:37;11.00;56.40
37782;DHT22;23621;50.878;4.584;2024-03-08T05:36:38;11.00;56.40
37782;DHT22;23621;50.878;4.584;2024-03-08T05:38:39;11.00;56.40
37782;DHT22;23621;50.878;4.584;2024-03-08T05:40:41;10.90;56.30
37782;DHT22;23621;50.878;4.584;2024-03-08T05:42:43;10.90;56.40
37782;DHT22;23621;50.878;4.584;2024-03-08T05:44:44;10.90;56.50
37782;DHT22;23621;50.878;4.584;2024-03-08T05:46:45;10.90;56.50
37782;DHT22;23621;50.878;4.584;2024-03-08T05:48:46;10.90;56.60
37782;DHT22;23621;50.878;4.584;2024-03-08T05:50:47;10.90;56.60
37782;DHT22;23621;50.878;4.584;2024-03-08T05:52:48;10.90;56.50
37782;DHT22;23621;50.878;4.584;2024-03-08T05:54:50;10.90;56.50
37782;DHT22;23621;50.878;4.584;2024-03-08T05:56:50;10.80;56.50
37782;DHT22;23621;50.878;4.584;2024-03-08T05:58:53;10.80;56.60
37782;DHT22;23621;50.878;4.584;2024-03-08T06:00:54;10.80;56.60
37782;DHT22;23621;50.878;4.584;2024-03-08T06:02:55;10.80;56.60
37782;DHT22;23621;50.878;4.584;2024-03-08T06:04:56;10.80;56.70
37782;DHT22;23621;50.878;4.584;2024-03-08T06:06:57;10.70;56.60
37782;DHT22;23621;50.878;4.584;2024-03-08T06:08:58;10.70;56.70
37782;DHT22;23621;50.878;4.584;2024-03-08T06:10:59;10.70;56.70
37782;DHT22;23621;50.878;4.584;2024-03-08T06:13:03;10.70;56.70
37782;DHT22;23621;50.878;4.584;2024-03-08T06:15:04;10.70;56.70
37782;DHT22;23621;50.878;4.584;2024-03-08T06:17:05;10.70;56.90
37782;DHT22;23621;50.878;4.584;2024-03-08T06:19:07;10.70;56.90
37782;DHT22;23621;50.878;4.584;2024-03-08T06:21:08;10.70;56.80
37782;DHT22;23621;50.878;4.584;2024-03-08T06:23:12;10.80;56.90
37782;DHT22;23621;50.878;4.584;2024-03-08T06:25:13;10.70;56.70
37782;DHT22;23621;50.878;4.584;2024-03-08T06:27:17;10.80;56.80
37782;DHT22;23621;50.878;4.584;2024-03-08T06:29:18;10.80;56.80
37782;DHT22;23621;50.878;4.584;2024-03-08T06:31:18;10.80;56.70
37782;DHT22;23621;50.878;4.584;2024-03-08T06:33:20;10.80;56.70
37782;DHT22;23621;50.878;4.584;2024-03-08T06:35:20;10.80;56.60
37782;DHT22;23621;50.878;4.584;2024-03-08T06:37:21;10.80;56.60
37782;DHT22;23621;50.878;4.584;2024-03-08T06:39:22;10.80;56.60
37782;DHT22;23621;50.878;4.584;2024-03-08T06:41:25;10.80;56.60
37782;DHT22;23621;50.878;4.584;2024-03-08T06:43:27;10.80;56.70
37782;DHT22;23621;50.878;4.584;2024-03-08T06:45:34;10.80;56.70
37782;DHT22;23621;50.878;4.584;2024-03-08T06:47:37;10.80;56.70
37782;DHT22;23621;50.878;4.584;2024-03-08T06:49:38;10.70;56.70
37782;DHT22;23621;50.878;4.584;2024-03-08T06:51:39;10.70;56.80
37782;DHT22;23621;50.878;4.584;2024-03-08T06:53:41;10.70;56.80
37782;DHT22;23621;50.878;4.584;2024-03-08T06:55:42;10.70;56.80
37782;DHT22;23621;50.878;4.584;2024-03-08T06:57:44;10.70;56.80
37782;DHT22;23621;50.878;4.584;2024-03-08T06:59:45;10.70;56.80
37782;DHT22;23621;50.878;4.584;2024-03-08T07:01:46;10.70;56.80
37782;DHT22;23621;50.878;4.584;2024-03-08T07:03:48;10.80;57.00
37782;DHT22;23621;50.878;4.584;2024-03-08T07:05:49;10.80;56.90
37782;DHT22;23621;50.878;4.584;2024-03-08T07:07:50;10.80;56.90
37782;DHT22;23621;50.878;4.584;2024-03-08T07:09:51;10.80;56.90
37782;DHT22;23621;50.878;4.584;2024-03-08T07:11:52;10.80;56.90
37782;DHT22;23621;50.878;4.584;2024-03-08T07:13:55;10.80;56.90
37782;DHT22;23621;50.878;4.584;2024-03-08T07:15:56;10.80;56.80
37782;DHT22;23621;50.878;4.584;2024-03-08T07:17:56;10.80;56.90
37782;DHT22;23621;50.878;4.584;2024-03-08T07:19:57;10.80;56.70
37782;DHT22;23621;50.878;4.584;2024-03-08T07:21:59;10.80;56.80
37782;DHT22;23621;50.878;4.584;2024-03-08T07:24:00;10.80;56.90
37782;DHT22;23621;50.878;4.584;2024-03-08T07:26:01;10.80;56.90
37782;DHT22;23621;50.878;4.584;2024-03-08T07:28:02;10.80;57.00
37782;DHT22;23621;50.878;4.584;2024-03-08T07:30:03;10.80;56.90
37782;DHT22;23621;50.878;4.584;2024-03-08T07:32:04;10.90;57.00
37782;DHT22;23621;50.878;4.584;2024-03-08T07:34:19;10.80;56.90
37782;DHT22;23621;50.878;4.584;2024-03-08T07:36:21;10.80;56.90
37782;DHT22;23621;50.878;4.584;2024-03-08T07:38:22;10.90;57.00
37782;DHT22;23621;50.878;4.584;2024-03-08T07:40:23;10.90;57.00
37782;DHT22;23621;50.878;4.584;2024-03-08T07:42:24;10.90;57.00
37782;DHT22;23621;50.878;4.584;2024-03-08T07:44:25;10.90;57.00
37782;DHT22;23621;50.878;4.584;2024-03-08T07:46:25;10.90;57.00
37782;DHT22;23621;50.878;4.584;2024-03-08T07:51:23;11.00;57.00
37782;DHT22;23621;50.878;4.584;2024-03-08T07:53:24;10.90;57.00
37782;DHT22;23621;50.878;4.584;2024-03-08T07:55:25;11.00;57.10
37782;DHT22;23621;50.878;4.584;2024-03-08T07:57:27;11.00;57.20
37782;DHT22;23621;50.878;4.584;2024-03-08T07:59:27;11.00;57.20
37782;DHT22;23621;50.878;4.584;2024-03-08T08:01:28;11.00;57.20
37782;DHT22;23621;50.878;4.584;2024-03-08T08:03:29;11.10;57.40
37782;DHT22;23621;50.878;4.584;2024-03-08T08:05:29;11.20;57.30
37782;DHT22;23621;50.878;4.584;2024-03-08T08:07:30;11.20;57.30
37782;DHT22;23621;50.878;4.584;2024-03-08T08:09:31;11.20;57.20
37782;DHT22;23621;50.878;4.584;2024-03-08T08:11:34;11.20;57.20
37782;DHT22;23621;50.878;4.584;2024-03-08T08:13:35;11.20;57.20
37782;DHT22;23621;50.878;4.584;2024-03-08T08:15:36;11.30;57.10
37782;DHT22;23621;50.878;4.584;2024-03-08T08:17:37;11.30;57.10
37782;DHT22;23621;50.878;4.584;2024-03-08T08:19:41;11.30;57.10
37782;DHT22;23621;50.878;4.584;2024-03-08T08:21:41;11.30;57.10
37782;DHT22;23621;50.878;4.584;2024-03-08T08:23:42;11.30;57.00
37782;DHT22;23621;50.878;4.584;2024-03-08T08:25:43;11.30;57.00
37782;DHT22;23621;50.878;4.584;2024-03-08T08:27:44;11.30;57.00
37782;DHT22;23621;50.878;4.584;2024-03-08T08:29:44;11.30;57.20
37782;DHT22;23621;50.878;4.584;2024-03-08T08:31:46;11.30;57.10
37782;DHT22;23621;50.878;4.584;2024-03-08T08:33:47;11.30;57.10
37782;DHT22;23621;50.878;4.584;2024-03-08T08:35:54;11.40;57.10
37782;DHT22;23621;50.878;4.584;2024-03-08T08:37:55;11.40;57.20
37782;DHT22;23621;50.878;4.584;2024-03-08T08:39:56;11.40;57.10
37782;DHT22;23621;50.878;4.584;2024-03-08T08:41:56;11.50;57.30
37782;DHT22;23621;50.878;4.584;2024-03-08T08:43:58;11.60;57.30
37782;DHT22;23621;50.878;4.584;2024-03-08T08:45:58;11.60;57.10
37782;DHT22;23621;50.878;4.584;2024-03-08T08:47:59;11.60;57.00
37782;DHT22;23621;50.878;4.584;2024-03-08T08:50:00;11.60;56.90
37782;DHT22;23621;50.878;4.584;2024-03-08T08:52:01;11.70;57.00
37782;DHT22;23621;50.878;4.584;2024-03-08T08:54:03;11.70;56.90
37782;DHT22;23621;50.878;4.584;2024-03-08T08:56:04;11.70;56.90
37782;DHT22;23621;50.878;4.584;2024-03-08T08:58:08;11.70;57.00
37782;DHT22;23621;50.878;4.584;2024-03-08T09:00:09;11.80;56.90
37782;DHT22;23621;50.878;4.584;2024-03-08T09:02:15;11.80;56.90
37782;DHT22;23621;50.878;4.584;2024-03-08T09:04:17;11.80;56.80
37782;DHT22;23621;50.878;4.584;2024-03-08T09:06:17;11.80;57.30
37782;DHT22;23621;50.878;4.584;2024-03-08T09:08:18;11.80;56.80
37782;DHT22;23621;50.878;4.584;2024-03-08T09:10:20;11.90;56.80
37782;DHT22;23621;50.878;4.584;2024-03-08T09:12:21;12.00;56.70
37782;DHT22;23621;50.878;4.584;2024-03-08T09:14:22;12.00;56.60
37782;DHT22;23621;50.878;4.584;2024-03-08T09:16:23;12.00;56.50
37782;DHT22;23621;50.878;4.584;2024-03-08T09:18:25;12.10;56.50
37782;DHT22;23621;50.878;4.584;2024-03-08T09:20:26;12.10;56.60
37782;DHT22;23621;50.878;4.584;2024-03-08T09:22:27;12.20;56.60
37782;DHT22;23621;50.878;4.584;2024-03-08T09:24:27;12.20;56.50
37782;DHT22;23621;50.878;4.584;2024-03-08T09:26:28;12.20;56.50
37782;DHT22;23621;50.878;4.584;2024-03-08T09:28:29;12.30;56.50
37782;DHT22;23621;50.878;4.584;2024-03-08T09:30:30;12.30;56.70
37782;DHT22;23621;50.878;4.584;2024-03-08T09:32:30;12.30;56.50
37782;DHT22;23621;50.878;4.584;2024-03-08T09:34:32;12.40;56.50
37782;DHT22;23621;50.878;4.584;2024-03-08T09:36:32;12.40;56.40
37782;DHT22;23621;50.878;4.584;2024-03-08T09:38:33;12.50;56.60
37782;DHT22;23621;50.878;4.584;2024-03-08T09:40:37;12.50;56.50
37782;DHT22;23621;50.878;4.584;2024-03-08T09:42:38;12.60;56.40
37782;DHT22;23621;50.878;4.584;2024-03-08T09:44:38;12.60;56.10
37782;DHT22;23621;50.878;4.584;2024-03-08T09:46:40;12.70;56.10
37782;DHT22;23621;50.878;4.584;2024-03-08T09:48:41;12.70;56.00
37782;DHT22;23621;50.878;4.584;2024-03-08T09:50:42;12.70;56.10
37782;DHT22;23621;50.878;4.584;2024-03-08T09:52:43;12.80;56.20
37782;DHT22;23621;50.878;4.584;2024-03-08T09:54:46;12.80;56.10
37782;DHT22;23621;50.878;4.584;2024-03-08T09:56:48;12.80;56.00
37782;DHT22;23621;50.878;4.584;2024-03-08T09:58:51;12.80;55.90
37782;DHT22;23621;50.878;4.584;2024-03-08T10:01:08;12.90;55.90
37782;DHT22;23621;50.878;4.584;2024-03-08T10:03:09;12.90;55.70
37782;DHT22;23621;50.878;4.584;2024-03-08T10:05:12;12.90;55.50
37782;DHT22;23621;50.878;4.584;2024-03-08T10:07:13;12.90;55.40
37782;DHT22;23621;50.878;4.584;2024-03-08T10:09:14;13.00;55.70
37782;DHT22;23621;50.878;4.584;2024-03-08T10:11:16;13.00;55.50
37782;DHT22;23621;50.878;4.584;2024-03-08T10:13:17;13.00;55.10
37782;DHT22;23621;50.878;4.584;2024-03-08T10:15:20;13.00;55.30
37782;DHT22;23621;50.878;4.584;2024-03-08T10:17:20;13.10;55.70
37782;DHT22;23621;50.878;4.584;2024-03-08T10:19:21;13.10;55.50
37782;DHT22;23621;50.878;4.584;2024-03-08T10:21:22;13.20;55.70
37782;DHT22;23621;50.878;4.584;2024-03-08T10:23:23;13.20;55.60
37782;DHT22;23621;50.878;4.584;2024-03-08T10:25:24;13.30;55.70
37782;DHT22;23621;50.878;4.584;2024-03-08T10:27:24;13.30;55.40
37782;DHT22;23621;50.878;4.584;2024-03-08T10:29:27;13.40;55.30
37782;DHT22;23621;50.878;4.584;2024-03-08T10:31:29;13.40;55.40
37782;DHT22;23621;50.878;4.584;2024-03-08T10:33:29;13.40;55.60
37782;DHT22;23621;50.878;4.584;2024-03-08T10:35:30;13.40;55.50
37782;DHT22;23621;50.878;4.584;2024-03-08T10:37:32;13.50;55.30
37782;DHT22;23621;50.878;4.584;2024-03-08T10:39:36;13.50;55.20
37782;DHT22;23621;50.878;4.584;2024-03-08T10:41:37;13.60;55.30
37782;DHT22;23621;50.878;4.584;2024-03-08T10:50:29;13.70;55.40
37782;DHT22;23621;50.878;4.584;2024-03-08T10:52:30;13.70;55.30
37782;DHT22;23621;50.878;4.584;2024-03-08T10:54:32;13.80;55.10
37782;DHT22;23621;50.878;4.584;2024-03-08T10:56:34;13.80;55.30
37782;DHT22;23621;50.878;4.584;2024-03-08T10:58:36;13.90;55.40
37782;DHT22;23621;50.878;4.584;2024-03-08T11:00:37;13.90;55.40
37782;DHT22;23621;50.878;4.584;2024-03-08T11:02:39;14.00;55.30
37782;DHT22;23621;50.878;4.584;2024-03-08T11:04:46;14.00;55.20
37782;DHT22;23621;50.878;4.584;2024-03-08T11:06:47;14.10;55.30
37782;DHT22;23621;50.878;4.584;2024-03-08T11:08:47;14.10;55.20
37782;DHT22;23621;50.878;4.584;2024-03-08T11:10:52;14.10;55.10
37782;DHT22;23621;50.878;4.584;2024-03-08T11:12:54;14.10;54.90
37782;DHT22;23621;50.878;4.584;2024-03-08T11:14:57;14.10;54.80
37782;DHT22;23621;50.878;4.584;2024-03-08T11:17:01;14.10;54.90
37782;DHT22;23621;50.878;4.584;2024-03-08T11:19:23;14.20;55.10
37782;DHT22;23621;50.878;4.584;2024-03-08T11:21:24;14.30;55.00
37782;DHT22;23621;50.878;4.584;2024-03-08T11:23:27;14.30;54.70
37782;DHT22;23621;50.878;4.584;2024-03-08T11:25:41;14.30;54.70
37782;DHT22;23621;50.878;4.584;2024-03-08T11:28:24;14.40;54.90
37782;DHT22;23621;50.878;4.584;2024-03-08T11:30:27;14.40;55.30
37782;DHT22;23621;50.878;4.584;2024-03-08T11:32:29;14.40;55.00
37782;DHT22;23621;50.878;4.584;2024-03-08T11:34:31;14.40;54.70
37782;DHT22;23621;50.878;4.584;2024-03-08T11:36:34;14.50;54.80
37782;DHT22;23621;50.878;4.584;2024-03-08T11:38:41;14.50;54.60
37782;DHT22;23621;50.878;4.584;2024-03-08T11:40:46;14.60;54.90
37782;DHT22;23621;50.878;4.584;2024-03-08T11:42:50;14.70;55.20
37782;DHT22;23621;50.878;4.584;2024-03-08T11:44:52;14.70;55.20
37782;DHT22;23621;50.878;4.584;2024-03-08T11:46:53;14.70;55.60
37782;DHT22;23621;50.878;4.584;2024-03-08T11:48:54;14.80;54.80
37782;DHT22;23621;50.878;4.584;2024-03-08T11:51:00;14.90;54.80
37782;DHT22;23621;50.878;4.584;2024-03-08T11:53:03;14.90;54.80
37782;DHT22;23621;50.878;4.584;2024-03-08T11:55:05;15.00;54.80
37782;DHT22;23621;50.878;4.584;2024-03-08T11:57:06;15.00;54.60
37782;DHT22;23621;50.878;4.584;2024-03-08T11:59:11;15.00;54.30
37782;DHT22;23621;50.878;4.584;2024-03-08T12:01:13;15.10;54.40
37782;DHT22;23621;50.878;4.584;2024-03-08T12:03:13;15.00;54.50
37782;DHT22;23621;50.878;4.584;2024-03-08T12:05:14;15.10;54.40
37782;DHT22;23621;50.878;4.584;2024-03-08T12:07:17;15.20;54.60
37782;DHT22;23621;50.878;4.584;2024-03-08T12:09:19;15.20;54.70
37782;DHT22;23621;50.878;4.584;2024-03-08T12:11:22;15.30;54.50
37782;DHT22;23621;50.878;4.584;2024-03-08T12:13:23;15.30;54.10
37782;DHT22;23621;50.878;4.584;2024-03-08T12:15:25;15.30;53.90
37782;DHT22;23621;50.878;4.584;2024-03-08T12:17:26;15.30;53.90
37782;DHT22;23621;50.878;4.584;2024-03-08T12:19:29;15.30;53.90
37782;DHT22;23621;50.878;4.584;2024-03-08T12:21:31;15.40;53.80
37782;DHT22;23621;50.878;4.584;2024-03-08T12:23:34;15.40;53.70
37782;DHT22;23621;50.878;4.584;2024-03-08T12:25:34;15.40;53.80
37782;DHT22;23621;50.878;4.584;2024-03-08T12:27:36;15.40;54.00
37782;DHT22;23621;50.878;4.584;2024-03-08T12:29:38;15.50;54.00
37782;DHT22;23621;50.878;4.584;2024-03-08T12:31:39;15.50;53.80
37782;DHT22;23621;50.878;4.584;2024-03-08T12:33:55;15.50;53.70
37782;DHT22;23621;50.878;4.584;2024-03-08T12:36:00;15.60;53.70
37782;DHT22;23621;50.878;4.584;2024-03-08T12:38:00;15.60;53.80
37782;DHT22;23621;50.878;4.584;2024-03-08T12:40:01;15.60;53.90
37782;DHT22;23621;50.878;4.584;2024-03-08T12:42:02;15.60;53.80
37782;DHT22;23621;50.878;4.584;2024-03-08T12:44:03;15.70;54.00
37782;DHT22;23621;50.878;4.584;2024-03-08T12:46:07;15.70;54.10
37782;DHT22;23621;50.878;4.584;2024-03-08T12:48:13;15.80;54.30
37782;DHT22;23621;50.878;4.584;2024-03-08T12:50:15;15.90;54.40
37782;DHT22;23621;50.878;4.584;2024-03-08T12:52:18;15.90;54.30
37782;DHT22;23621;50.878;4.584;2024-03-08T12:54:19;16.00;54.10
37782;DHT22;23621;50.878;4.584;2024-03-08T12:56:31;16.00;53.80
37782;DHT22;23621;50.878;4.584;2024-03-08T12:58:35;16.10;53.80